Time;durP1;ratioP1;P1;durP2;ratioP2;P2;SDS_P1;SDS_P2;PMS_P1;PMS_P2;Temp;Humidity;BMP_temperature;BMP_pressure;BME280_temperature;BME280_humidity;BME280_pressure;Samples;Min_cycle;Max_cycle;Signal;HPM_P1;HPM_P2
2023/10/14 00:02:15;;;;;;;6.00;4.57;;;23.90;76.30;;;;;;5053302;28;20474;-80
2023/10/14 00:04:44;;;;;;;6.43;4.50;;;23.90;76.20;;;;;;5046609;28;20474;-78
2023/10/14 00:07:17;;;;;;;6.00;4.10;;;23.90;76.20;;;;;;5048260;28;20458;-78
2023/10/14 00:09:49;;;;;;;5.83;5.23;;;23.80;76.20;;;;;;5052499;28;20442;-78
2023/10/14 00:12:20;;;;;;;6.57;4.27;;;23.80;76.30;;;;;;5050387;28;20473;-81
2023/10/14 00:14:53;;;;;;;8.33;4.30;;;23.80;76.20;;;;;;5059054;28;20530;-80
2023/10/14 00:17:22;;;;;;;11.63;4.80;;;23.80;76.10;;;;;;5054563;28;20490;-79
2023/10/14 00:19:50;;;;;;;5.67;4.63;;;23.80;76.20;;;;;;5052872;28;20446;-79
2023/10/14 00:22:19;;;;;;;4.47;4.07;;;23.80;76.20;;;;;;5051049;28;20471;-77
2023/10/14 00:24:52;;;;;;;7.07;4.83;;;23.80;76.20;;;;;;5051486;28;20432;-79
2023/10/14 00:27:23;;;;;;;4.80;3.97;;;23.70;76.10;;;;;;5051190;28;20460;-78
2023/10/14 00:30:06;;;;;;;10.67;5.10;;;23.70;76.20;;;;;;5052953;28;20455;-79
2023/10/14 00:32:34;;;;;;;5.90;4.23;;;23.70;76.10;;;;;;5060692;28;20516;-79
2023/10/14 00:35:03;;;;;;;6.33;4.97;;;23.70;76.20;;;;;;5055945;28;20874;-78
2023/10/14 00:37:32;;;;;;;7.90;4.93;;;23.70;76.20;;;;;;5052795;28;20470;-79
2023/10/14 00:40:10;;;;;;;6.70;4.60;;;23.70;76.20;;;;;;5058565;28;20424;-79
2023/10/14 00:42:38;;;;;;;6.00;5.07;;;23.70;76.20;;;;;;5065095;28;20445;-79
2023/10/14 00:45:11;;;;;;;6.07;4.03;;;23.60;76.20;;;;;;5064730;28;20441;-80
2023/10/14 00:47:40;;;;;;;5.03;4.60;;;23.60;76.00;;;;;;5068336;28;20785;-80
2023/10/14 00:50:22;;;;;;;5.83;4.67;;;23.60;76.20;;;;;;5064037;28;20520;-79
2023/10/14 00:52:54;;;;;;;6.17;5.17;;;23.60;76.20;;;;;;5058901;28;20490;-79
2023/10/14 00:55:26;;;;;;;5.33;4.83;;;23.60;76.10;;;;;;5051387;28;20447;-80
2023/10/14 00:57:55;;;;;;;9.07;4.83;;;23.60;76.10;;;;;;5045575;28;20566;-79
2023/10/14 01:00:34;;;;;;;8.27;5.33;;;23.50;76.00;;;;;;5060508;28;20428;-79
2023/10/14 01:03:07;;;;;;;11.60;9.33;;;23.50;75.90;;;;;;5043207;28;20447;-78
2023/10/14 01:05:35;;;;;;;14.40;10.20;;;23.50;76.00;;;;;;5076959;28;20434;-80
2023/10/14 01:08:08;;;;;;;17.67;12.20;;;23.40;75.90;;;;;;5076298;28;20429;-80
2023/10/14 01:10:36;;;;;;;17.60;11.77;;;23.40;75.90;;;;;;5066240;28;20450;-81
2023/10/14 01:13:13;;;;;;;18.43;12.50;;;23.40;75.90;;;;;;5067326;28;20454;-80
2023/10/14 01:15:47;;;;;;;19.60;13.47;;;23.40;75.90;;;;;;5064224;28;20498;-80
2023/10/14 01:18:16;;;;;;;19.80;14.30;;;23.40;75.80;;;;;;5058202;28;20528;-79
2023/10/14 01:20:46;;;;;;;19.73;13.90;;;23.40;75.80;;;;;;5050812;28;20552;-79
2023/10/14 01:23:17;;;;;;;17.83;13.33;;;23.30;75.70;;;;;;5055016;28;20429;-79
2023/10/14 01:25:48;;;;;;;21.20;14.07;;;23.30;75.80;;;;;;5058567;28;20466;-79
2023/10/14 01:28:21;;;;;;;18.53;13.33;;;23.30;75.60;;;;;;5056073;28;20431;-79
2023/10/14 01:30:58;;;;;;;18.77;13.37;;;23.30;75.60;;;;;;5058685;28;20497;-79
2023/10/14 01:33:26;;;;;;;22.30;14.07;;;23.30;75.60;;;;;;5062479;28;20529;-79
2023/10/14 01:35:54;;;;;;;17.27;13.50;;;23.20;75.70;;;;;;5055066;28;20449;-79
2023/10/14 01:38:24;;;;;;;18.60;13.20;;;23.20;75.60;;;;;;5056784;28;20463;-80
2023/10/14 01:40:53;;;;;;;17.63;13.03;;;23.20;75.40;;;;;;5056026;28;20448;-80
2023/10/14 01:43:24;;;;;;;20.20;12.83;;;23.20;75.50;;;;;;5059067;28;20455;-79
2023/10/14 01:46:00;;;;;;;22.63;13.40;;;23.20;75.60;;;;;;5057692;28;20483;-79
2023/10/14 01:48:31;;;;;;;18.23;12.77;;;23.20;75.50;;;;;;5050740;28;20439;-80
2023/10/14 01:50:59;;;;;;;15.10;12.27;;;23.10;75.30;;;;;;5047803;28;20497;-80
2023/10/14 01:53:31;;;;;;;17.30;12.57;;;23.20;75.30;;;;;;5059803;28;20530;-80
2023/10/14 01:56:01;;;;;;;17.03;12.57;;;23.10;75.20;;;;;;5064254;28;20466;-79
2023/10/14 01:58:30;;;;;;;16.73;11.13;;;23.10;75.10;;;;;;5058685;28;20470;-79
2023/10/14 02:01:04;;;;;;;17.60;12.30;;;23.10;75.20;;;;;;5064418;28;20425;-80
2023/10/14 02:03:35;;;;;;;18.40;12.73;;;23.10;75.10;;;;;;5065182;28;20529;-79
2023/10/14 02:06:10;;;;;;;16.30;11.57;;;23.10;75.20;;;;;;5060064;28;20443;-77
2023/10/14 02:08:40;;;;;;;17.57;12.27;;;23.00;75.00;;;;;;5058461;28;20464;-78
2023/10/14 02:11:09;;;;;;;15.00;11.40;;;23.00;75.10;;;;;;5061835;28;20496;-79
2023/10/14 02:13:37;;;;;;;15.70;11.13;;;23.00;74.90;;;;;;5052064;28;20497;-78
2023/10/14 02:16:07;;;;;;;16.10;11.87;;;23.00;75.10;;;;;;5054098;28;20466;-79
2023/10/14 02:18:37;;;;;;;14.03;10.83;;;23.00;75.10;;;;;;5059337;28;20478;-79
2023/10/14 02:21:08;;;;;;;14.00;10.50;;;23.00;75.20;;;;;;5062705;28;20453;-79
2023/10/14 02:23:44;;;;;;;12.57;9.97;;;23.00;75.00;;;;;;5059568;28;20604;-80
2023/10/14 02:26:24;;;;;;;13.50;10.60;;;23.00;75.20;;;;;;5060622;28;20470;-79
2023/10/14 02:28:53;;;;;;;16.97;11.00;;;23.00;75.10;;;;;;5059019;28;20512;-80
2023/10/14 02:31:29;;;;;;;16.37;10.60;;;23.00;75.10;;;;;;5056703;28;20509;-80
2023/10/14 02:34:00;;;;;;;16.43;10.57;;;22.90;75.00;;;;;;5052634;28;20469;-80
2023/10/14 02:36:29;;;;;;;14.17;10.30;;;22.90;74.90;;;;;;5054467;28;20462;-80
2023/10/14 02:38:58;;;;;;;14.43;10.57;;;22.90;74.70;;;;;;5054637;28;20449;-79
2023/10/14 02:41:29;;;;;;;15.83;10.43;;;22.90;74.60;;;;;;5054047;28;20457;-78
2023/10/14 02:44:18;;;;;;;11.90;9.87;;;22.90;74.80;;;;;;5054017;28;20454;-79
2023/10/14 02:46:47;;;;;;;11.87;9.10;;;22.80;74.60;;;;;;5054215;28;20462;-78
2023/10/14 02:49:15;;;;;;;16.03;9.93;;;22.80;74.60;;;;;;5055214;28;20434;-78
2023/10/14 02:51:43;;;;;;;13.37;9.83;;;22.80;74.40;;;;;;5049999;28;20456;-78
2023/10/14 02:54:26;;;;;;;11.63;9.20;;;22.70;74.20;;;;;;5054511;28;20473;-79
2023/10/14 02:56:59;;;;;;;13.47;9.93;;;22.70;74.30;;;;;;5055874;28;20486;-79
2023/10/14 02:59:43;;;;;;;11.43;9.13;;;22.70;74.20;;;;;;5055729;28;20463;-79
2023/10/14 03:02:15;;;;;;;13.40;9.43;;;22.60;73.80;;;;;;5054683;28;20463;-78
2023/10/14 03:04:49;;;;;;;11.90;9.40;;;22.60;73.80;;;;;;5051652;28;20432;-78
2023/10/14 03:07:23;;;;;;;12.23;8.50;;;22.60;73.70;;;;;;5055773;28;20520;-78
2023/10/14 03:09:53;;;;;;;12.80;8.80;;;22.50;73.60;;;;;;5056256;28;20441;-79
2023/10/14 03:12:23;;;;;;;14.43;9.37;;;22.50;73.50;;;;;;5047502;28;20417;-78
2023/10/14 03:14:52;;;;;;;11.30;8.60;;;22.50;73.20;;;;;;5055923;28;20524;-79
2023/10/14 03:17:24;;;;;;;10.10;8.50;;;22.50;73.10;;;;;;5047912;28;20542;-78
2023/10/14 03:19:56;;;;;;;17.70;9.33;;;22.40;72.90;;;;;;5059493;28;20530;-79
2023/10/14 03:22:26;;;;;;;10.47;7.87;;;22.40;72.70;;;;;;5055944;28;20529;-78
2023/10/14 03:25:07;;;;;;;14.03;8.73;;;22.40;72.60;;;;;;5056633;28;20430;-78
2023/10/14 03:27:39;;;;;;;13.23;8.77;;;22.40;72.50;;;;;;5052392;28;20445;-79
2023/10/14 03:30:11;;;;;;;11.40;8.00;;;22.30;72.30;;;;;;5056753;28;20506;-79
2023/10/14 03:32:42;;;;;;;11.57;8.70;;;22.30;72.20;;;;;;5056091;28;20535;-80
2023/10/14 03:35:11;;;;;;;10.37;7.47;;;22.30;72.20;;;;;;5055219;28;20457;-78
2023/10/14 03:37:52;;;;;;;9.57;7.30;;;22.30;72.00;;;;;;5043551;28;20836;-79
2023/10/14 03:40:51;;;;;;;9.23;7.50;;;22.20;72.00;;;;;;5058769;28;20462;-80
2023/10/14 03:43:21;;;;;;;9.13;7.10;;;22.20;71.80;;;;;;5053260;28;20451;-79
2023/10/14 03:45:53;;;;;;;9.00;6.70;;;22.20;71.80;;;;;;5053507;28;20470;-79
2023/10/14 03:48:27;;;;;;;9.07;7.30;;;22.20;72.20;;;;;;5055590;28;20541;-78
2023/10/14 03:51:02;;;;;;;10.30;6.97;;;22.10;71.50;;;;;;5060474;28;20446;-79
2023/10/14 03:53:32;;;;;;;8.47;6.43;;;22.10;71.40;;;;;;5051489;28;20439;-79
2023/10/14 03:56:00;;;;;;;10.63;7.30;;;22.10;71.30;;;;;;5060850;28;20481;-78
2023/10/14 03:58:32;;;;;;;11.23;7.77;;;22.10;71.40;;;;;;5048036;28;20443;-78
2023/10/14 04:01:02;;;;;;;9.60;6.90;;;22.10;71.30;;;;;;5050170;28;20458;-77
2023/10/14 04:03:39;;;;;;;7.93;6.50;;;22.00;70.80;;;;;;5048461;28;20455;-78
2023/10/14 04:06:14;;;;;;;11.03;6.60;;;22.00;70.90;;;;;;5054493;28;20465;-80
2023/10/14 04:08:47;;;;;;;6.83;5.93;;;22.00;70.90;;;;;;5073695;28;20434;-80
2023/10/14 04:11:17;;;;;;;9.53;6.63;;;22.00;70.70;;;;;;5060658;28;20443;-80
2023/10/14 04:14:04;;;;;;;10.30;6.60;;;21.90;70.50;;;;;;5059044;28;20434;-80
2023/10/14 04:16:48;;;;;;;11.87;6.93;;;21.90;70.60;;;;;;5062466;28;20481;-79
2023/10/14 04:19:24;;;;;;;8.90;5.93;;;21.90;70.50;;;;;;5064262;28;20445;-80
2023/10/14 04:21:58;;;;;;;8.43;6.13;;;21.90;70.30;;;;;;5063755;28;20505;-80
2023/10/14 04:24:45;;;;;;;8.53;6.07;;;21.90;70.30;;;;;;5058329;28;20450;-80
2023/10/14 04:27:29;;;;;;;8.30;5.87;;;21.80;70.30;;;;;;5061621;28;20460;-79
2023/10/14 04:30:11;;;;;;;9.03;6.40;;;21.80;70.40;;;;;;5057684;28;20430;-78
2023/10/14 04:32:47;;;;;;;10.00;5.60;;;21.80;70.20;;;;;;5059041;28;20438;-79
2023/10/14 04:35:19;;;;;;;7.33;5.23;;;21.80;70.40;;;;;;5058204;28;20516;-79
2023/10/14 04:37:53;;;;;;;9.27;5.70;;;21.80;70.10;;;;;;5062252;28;20469;-79
2023/10/14 04:40:36;;;;;;;8.17;5.03;;;21.70;69.90;;;;;;5061396;28;20461;-77
2023/10/14 04:43:11;;;;;;;8.27;5.53;;;21.70;70.10;;;;;;5057095;28;20450;-78
2023/10/14 04:45:45;;;;;;;10.70;5.73;;;21.70;70.00;;;;;;5058771;28;20547;-78
2023/10/14 04:48:14;;;;;;;7.20;5.20;;;21.70;69.90;;;;;;5060087;28;20521;-79
2023/10/14 04:50:43;;;;;;;6.13;4.87;;;21.70;69.80;;;;;;5057726;28;20439;-78
2023/10/14 04:53:13;;;;;;;6.90;5.30;;;21.70;69.70;;;;;;5055657;28;20458;-78
2023/10/14 04:55:44;;;;;;;7.30;5.10;;;21.70;69.50;;;;;;5060399;28;20470;-79
2023/10/14 04:58:23;;;;;;;6.93;5.07;;;21.60;69.40;;;;;;5057158;28;20492;-78
2023/10/14 05:01:00;;;;;;;7.37;4.60;;;21.60;69.40;;;;;;5058435;28;20466;-79
2023/10/14 05:03:29;;;;;;;8.30;4.60;;;21.60;69.40;;;;;;5065564;28;20446;-78
2023/10/14 05:06:03;;;;;;;9.00;4.43;;;21.50;69.20;;;;;;5059771;28;20465;-77
2023/10/14 05:08:44;;;;;;;5.93;5.00;;;21.60;69.20;;;;;;5053964;28;20477;-78
2023/10/14 05:11:13;;;;;;;8.90;5.00;;;21.50;69.10;;;;;;5045072;28;20444;-78
2023/10/14 05:13:42;;;;;;;7.57;4.87;;;21.50;69.10;;;;;;5041526;28;20466;-78
2023/10/14 05:16:16;;;;;;;7.03;4.80;;;21.50;68.80;;;;;;5057213;28;20447;-78
2023/10/14 05:18:59;;;;;;;5.03;4.53;;;21.50;69.00;;;;;;5056766;28;20490;-78
2023/10/14 05:21:36;;;;;;;7.07;4.83;;;21.40;68.70;;;;;;5053047;28;20451;-77
2023/10/14 05:24:06;;;;;;;5.60;3.90;;;21.40;68.80;;;;;;5056962;28;20446;-78
2023/10/14 05:26:44;;;;;;;5.40;4.07;;;21.40;68.70;;;;;;5055953;28;20462;-78
2023/10/14 05:29:16;;;;;;;5.53;4.30;;;21.40;68.70;;;;;;5063020;28;20423;-78
2023/10/14 05:31:46;;;;;;;6.00;4.37;;;21.40;68.70;;;;;;5064307;28;20500;-77
2023/10/14 05:34:14;;;;;;;6.43;3.77;;;21.30;68.50;;;;;;5063354;28;20413;-80
2023/10/14 05:36:42;;;;;;;5.77;4.33;;;21.30;68.50;;;;;;5059587;28;20459;-80
2023/10/14 05:39:11;;;;;;;5.80;3.63;;;21.40;68.40;;;;;;5060292;28;20427;-79
2023/10/14 05:41:39;;;;;;;7.20;4.30;;;21.30;68.30;;;;;;5062361;28;20577;-79
2023/10/14 05:44:07;;;;;;;9.07;4.43;;;21.40;68.20;;;;;;5064262;28;20459;-78
2023/10/14 05:46:35;;;;;;;5.03;3.80;;;21.30;68.20;;;;;;5064109;28;20477;-79
2023/10/14 05:49:05;;;;;;;6.03;3.83;;;21.30;68.10;;;;;;5049368;22;20492;-76
2023/10/14 05:51:36;;;;;;;5.43;3.40;;;21.30;68.10;;;;;;5004295;28;20463;-77
2023/10/14 05:54:04;;;;;;;7.73;4.00;;;21.30;67.90;;;;;;4997120;28;20408;-76
2023/10/14 05:56:32;;;;;;;4.70;3.30;;;21.20;68.10;;;;;;4996820;28;20458;-76
2023/10/14 05:59:00;;;;;;;5.53;4.00;;;21.20;68.20;;;;;;5001735;28;20523;-76
2023/10/14 06:01:29;;;;;;;6.33;3.67;;;21.20;68.30;;;;;;4989921;28;20475;-76
2023/10/14 06:03:58;;;;;;;4.50;3.13;;;21.30;68.30;;;;;;4992952;28;20476;-76
2023/10/14 06:06:27;;;;;;;9.83;3.50;;;21.20;68.60;;;;;;4997460;28;20442;-77
2023/10/14 06:09:00;;;;;;;5.03;3.60;;;21.30;68.30;;;;;;5004850;28;20526;-77
2023/10/14 06:11:28;;;;;;;6.80;3.87;;;21.20;68.10;;;;;;5004164;28;20446;-77
2023/10/14 06:13:57;;;;;;;6.07;3.27;;;21.20;68.30;;;;;;4981774;28;20450;-77
2023/10/14 06:16:26;;;;;;;6.63;3.30;;;21.20;68.20;;;;;;5003200;28;20437;-77
2023/10/14 06:18:54;;;;;;;6.50;3.60;;;21.20;68.00;;;;;;5012717;28;20543;-77
2023/10/14 06:21:27;;;;;;;7.80;3.73;;;21.20;67.90;;;;;;4993977;28;20487;-77
2023/10/14 06:23:57;;;;;;;6.57;3.30;;;21.10;67.90;;;;;;5007166;28;20543;-76
2023/10/14 06:26:25;;;;;;;4.83;3.23;;;21.20;67.90;;;;;;4997275;28;20472;-77
2023/10/14 06:28:56;;;;;;;6.70;3.90;;;21.20;67.90;;;;;;5007347;28;20500;-77
2023/10/14 06:31:24;;;;;;;5.27;3.10;;;21.10;67.70;;;;;;4997997;28;20456;-77
2023/10/14 06:33:54;;;;;;;8.07;4.17;;;21.10;67.70;;;;;;4999229;28;20437;-76
2023/10/14 06:36:24;;;;;;;5.70;3.67;;;21.10;67.60;;;;;;5001966;28;20531;-77
2023/10/14 06:38:59;;;;;;;5.87;3.50;;;21.10;67.50;;;;;;4997122;28;20489;-76
2023/10/14 06:41:32;;;;;;;4.27;3.17;;;21.10;67.70;;;;;;4989791;28;20469;-76
2023/10/14 06:44:08;;;;;;;4.30;2.90;;;21.10;67.70;;;;;;5002418;28;20447;-77
2023/10/14 06:46:38;;;;;;;5.23;3.10;;;21.10;67.40;;;;;;4987932;28;20453;-77
2023/10/14 06:49:13;;;;;;;6.30;3.57;;;21.10;67.30;;;;;;4991725;28;20471;-79
2023/10/14 06:51:43;;;;;;;6.80;3.20;;;21.10;67.40;;;;;;4994841;28;20444;-78
2023/10/14 06:54:14;;;;;;;6.80;3.03;;;21.20;67.40;;;;;;5001236;28;20506;-76
2023/10/14 06:56:44;;;;;;;10.63;3.20;;;21.10;67.20;;;;;;4995201;28;20923;-77
2023/10/14 06:59:13;;;;;;;3.40;2.87;;;21.10;67.30;;;;;;4993873;28;21017;-77
2023/10/14 07:01:43;;;;;;;5.27;3.00;;;21.20;67.50;;;;;;4997029;28;20472;-77
2023/10/14 07:04:12;;;;;;;5.17;3.00;;;21.10;67.20;;;;;;5002926;28;20457;-77
2023/10/14 07:06:42;;;;;;;4.67;3.07;;;21.10;67.20;;;;;;5001071;28;20532;-75
2023/10/14 07:09:17;;;;;;;3.93;2.80;;;21.20;67.20;;;;;;4994812;28;20477;-77
2023/10/14 07:11:47;;;;;;;6.60;3.13;;;21.20;67.30;;;;;;4995232;28;20455;-77
2023/10/14 07:14:18;;;;;;;8.60;3.23;;;21.20;67.30;;;;;;4995176;28;20473;-77
2023/10/14 07:16:46;;;;;;;7.13;3.07;;;21.20;67.30;;;;;;4988608;28;20492;-77
2023/10/14 07:19:14;;;;;;;3.73;2.57;;;21.20;67.20;;;;;;5008331;28;20470;-77
2023/10/14 07:21:42;;;;;;;6.73;3.00;;;21.20;67.20;;;;;;4997269;28;20476;-77
2023/10/14 07:24:14;;;;;;;6.30;3.00;;;21.20;67.20;;;;;;4991888;28;20817;-78
2023/10/14 07:26:43;;;;;;;6.00;2.80;;;21.20;67.20;;;;;;4998120;28;20502;-78
2023/10/14 07:29:12;;;;;;;4.50;3.03;;;21.20;67.20;;;;;;4994607;28;20462;-78
2023/10/14 07:31:41;;;;;;;4.40;2.50;;;21.20;67.20;;;;;;4992007;28;20441;-75
2023/10/14 07:34:10;;;;;;;3.53;2.30;;;21.20;67.20;;;;;;5003168;28;20449;-76
2023/10/14 07:36:38;;;;;;;5.50;2.50;;;21.20;67.20;;;;;;4996687;28;20556;-79
2023/10/14 07:39:27;;;;;;;5.37;3.33;;;21.30;67.10;;;;;;4990119;28;20469;-78
2023/10/14 07:41:56;;;;;;;2.73;2.37;;;21.30;67.20;;;;;;4988147;28;20473;-78
2023/10/14 07:44:25;;;;;;;4.07;2.50;;;21.30;67.20;;;;;;5001734;28;20438;-78
2023/10/14 07:46:54;;;;;;;5.80;3.03;;;21.30;67.40;;;;;;4998013;28;20521;-78
2023/10/14 07:49:22;;;;;;;6.63;2.90;;;21.30;67.50;;;;;;4998092;28;20472;-78
2023/10/14 07:51:52;;;;;;;5.00;2.77;;;21.30;67.20;;;;;;5004037;28;20450;-78
2023/10/14 07:54:21;;;;;;;3.73;2.37;;;21.40;67.00;;;;;;5004448;28;20484;-78
2023/10/14 07:56:49;;;;;;;7.23;2.90;;;21.40;67.40;;;;;;5010388;28;20478;-79
2023/10/14 07:59:19;;;;;;;5.73;2.30;;;21.50;67.60;;;;;;5003408;28;20511;-78
2023/10/14 08:01:48;;;;;;;5.13;2.57;;;21.50;67.60;;;;;;4997313;28;20941;-78
2023/10/14 08:04:18;;;;;;;5.83;2.87;;;21.60;67.80;;;;;;5001684;28;20460;-78
2023/10/14 08:06:46;;;;;;;4.00;2.13;;;21.70;68.00;;;;;;4995646;28;20516;-78
2023/10/14 08:09:24;;;;;;;5.17;2.47;;;21.70;67.80;;;;;;5003971;28;20464;-76
2023/10/14 08:11:53;;;;;;;4.63;2.43;;;21.80;68.20;;;;;;5006404;28;20444;-76
2023/10/14 08:14:21;;;;;;;4.27;2.80;;;22.00;68.90;;;;;;5000045;28;20512;-78
2023/10/14 08:16:51;;;;;;;6.87;2.40;;;22.20;68.70;;;;;;5002570;28;20449;-76
2023/10/14 08:19:22;;;;;;;6.03;2.20;;;22.30;69.00;;;;;;4996749;28;20469;-75
2023/10/14 08:21:52;;;;;;;2.77;2.10;;;22.50;69.50;;;;;;4996795;28;20475;-78
2023/10/14 08:24:26;;;;;;;5.47;2.93;;;22.60;69.60;;;;;;5004594;28;20451;-77
2023/10/14 08:27:12;;;;;;;3.77;2.37;;;22.80;69.90;;;;;;4997723;28;20533;-77
2023/10/14 08:29:43;;;;;;;6.57;2.47;;;23.00;70.10;;;;;;5010367;28;20501;-75
2023/10/14 08:32:23;;;;;;;7.00;2.77;;;23.10;70.60;;;;;;5007107;28;20502;-76
2023/10/14 08:34:53;;;;;;;2.80;2.30;;;23.40;70.80;;;;;;4999870;28;20480;-76
2023/10/14 08:37:25;;;;;;;6.13;2.73;;;23.60;71.40;;;;;;4990589;28;20480;-76
2023/10/14 08:39:59;;;;;;;5.83;2.90;;;23.70;71.20;;;;;;4991391;28;20485;-75
2023/10/14 08:42:35;;;;;;;5.47;2.70;;;23.90;71.30;;;;;;4988328;28;20500;-78
2023/10/14 08:45:04;;;;;;;4.27;2.60;;;24.00;71.40;;;;;;4997095;28;20438;-78
2023/10/14 08:47:37;;;;;;;4.90;2.37;;;24.20;71.50;;;;;;5000502;28;20482;-77
2023/10/14 08:50:09;;;;;;;5.70;3.23;;;24.40;71.40;;;;;;4992538;28;20439;-78
2023/10/14 08:52:39;;;;;;;4.43;2.50;;;24.60;71.30;;;;;;5003842;28;20479;-75
2023/10/14 08:55:11;;;;;;;4.80;2.57;;;24.80;71.30;;;;;;4994337;28;20900;-77
2023/10/14 08:57:39;;;;;;;6.00;2.80;;;25.00;71.20;;;;;;4988293;28;20447;-78
2023/10/14 09:00:12;;;;;;;5.93;2.70;;;25.10;70.90;;;;;;4991209;28;20452;-78
2023/10/14 09:02:42;;;;;;;6.30;3.00;;;25.30;70.90;;;;;;4993324;28;20475;-77
2023/10/14 09:05:16;;;;;;;7.53;2.77;;;25.50;70.20;;;;;;4993949;28;20420;-76
2023/10/14 09:49:28;;;;;;;5.80;3.00;;;27.40;66.10;;;;;;4917412;29;20838;-77
2023/10/14 10:00:03;;;;;;;3.70;3.10;;;28.00;64.90;;;;;;4781631;30;20492;-76
2023/10/14 10:02:38;;;;;;;5.97;3.20;;;28.20;64.00;;;;;;4814326;29;20570;-74
2023/10/14 10:05:07;;;;;;;7.53;3.20;;;28.20;61.80;;;;;;4893947;29;20552;-75
2023/10/14 10:07:45;;;;;;;10.47;4.13;;;28.30;60.70;;;;;;4945845;29;20451;-74
2023/10/14 10:10:15;;;;;;;13.03;4.60;;;28.30;59.80;;;;;;4957342;28;20451;-74
2023/10/14 10:12:44;;;;;;;14.83;3.70;;;28.30;60.30;;;;;;4955727;29;20484;-75
2023/10/14 10:15:19;;;;;;;12.70;4.50;;;28.40;61.30;;;;;;4955123;28;20459;-75
2023/10/14 10:17:55;;;;;;;17.00;4.07;;;28.70;62.00;;;;;;4954585;29;20553;-75
2023/10/14 10:20:29;;;;;;;14.17;3.73;;;29.00;61.70;;;;;;4949834;29;20455;-74
2023/10/14 10:23:01;;;;;;;18.73;5.47;;;29.10;61.10;;;;;;4950145;29;20985;-75
2023/10/14 10:25:49;;;;;;;11.20;4.17;;;29.10;60.10;;;;;;4955633;28;20459;-75
2023/10/14 10:28:39;;;;;;;10.80;4.10;;;29.10;60.30;;;;;;4952171;28;20490;-74
2023/10/14 10:31:11;;;;;;;16.17;4.70;;;29.30;60.20;;;;;;4956020;28;20451;-75
2023/10/14 10:33:49;;;;;;;11.73;4.40;;;29.30;60.00;;;;;;4955796;29;20476;-75
2023/10/14 10:36:21;;;;;;;17.30;4.17;;;29.20;59.60;;;;;;4955801;29;20446;-75
2023/10/14 10:38:54;;;;;;;10.73;4.33;;;29.20;59.60;;;;;;4948032;28;20445;-75
2023/10/14 10:41:25;;;;;;;12.40;3.90;;;29.20;59.20;;;;;;4947643;28;20484;-75
2023/10/14 10:44:02;;;;;;;10.57;4.10;;;29.20;59.60;;;;;;4946655;28;20479;-76
2023/10/14 10:46:42;;;;;;;17.37;4.63;;;29.30;59.40;;;;;;4950721;28;20476;-74
2023/10/14 10:49:13;;;;;;;13.27;4.33;;;29.20;59.10;;;;;;4954146;29;20478;-74
2023/10/14 10:51:52;;;;;;;11.90;4.40;;;29.10;59.50;;;;;;4946723;28;20515;-75
2023/10/14 10:54:22;;;;;;;12.43;3.80;;;29.10;59.30;;;;;;4955439;28;20476;-76
2023/10/14 10:56:51;;;;;;;15.97;3.97;;;29.00;59.10;;;;;;4955352;29;20451;-76
2023/10/14 10:59:36;;;;;;;15.43;3.63;;;28.80;59.30;;;;;;4955709;29;20505;-76
2023/10/14 11:02:09;;;;;;;11.40;4.30;;;28.70;59.80;;;;;;4955688;29;20421;-76
2023/10/14 11:04:45;;;;;;;9.83;3.77;;;28.50;60.10;;;;;;4948651;29;20438;-76
2023/10/14 11:07:14;;;;;;;8.63;3.07;;;28.30;60.20;;;;;;4944136;29;20426;-76
2023/10/14 11:14:53;;;;;;;6.67;3.10;;;26.70;55.40;;;;;;4984125;28;20470;-77
2023/10/14 11:17:26;;;;;;;5.70;2.20;;;25.60;57.10;;;;;;4990761;28;20419;-75
2023/10/14 11:19:56;;;;;;;6.57;2.60;;;25.30;56.00;;;;;;4968255;28;20501;-76
2023/10/14 11:22:26;;;;;;;3.83;2.60;;;25.20;57.40;;;;;;4963834;28;20475;-75
2023/10/14 11:24:58;;;;;;;4.30;2.10;;;25.30;56.20;;;;;;4961942;28;20455;-75
2023/10/14 11:27:30;;;;;;;4.20;2.17;;;26.40;56.40;;;;;;4963590;28;20442;-74
2023/10/14 11:29:59;;;;;;;7.27;2.63;;;28.10;52.70;;;;;;4969951;28;20428;-77
2023/10/14 11:32:33;;;;;;;13.13;3.03;;;29.60;50.90;;;;;;4961244;28;20441;-77
2023/10/14 11:35:05;;;;;;;2.13;1.70;;;31.20;45.90;;;;;;4975446;28;20454;-76
2023/10/14 11:45:33;;;;;;;2.40;1.40;;;32.00;35.40;;;;;;4987739;28;20461;-77
2023/10/14 11:48:54;;;;;;;7.73;2.00;;;30.80;36.70;;;;;;5000573;28;20563;-77
2023/10/14 11:52:04;;;;;;;8.70;1.83;;;29.00;39.70;;;;;;4977029;28;20450;-76
2023/10/14 11:54:43;;;;;;;7.30;2.23;;;28.00;40.20;;;;;;4977560;28;20465;-75
2023/10/14 11:57:11;;;;;;;4.10;1.83;;;27.20;42.80;;;;;;4980823;28;21119;-76
2023/10/14 11:59:39;;;;;;;7.33;2.03;;;28.30;46.10;;;;;;4968034;28;20485;-76
2023/10/14 12:02:07;;;;;;;6.50;2.50;;;30.00;44.00;;;;;;4976281;28;20450;-76
2023/10/14 12:04:35;;;;;;;5.27;1.87;;;31.60;41.60;;;;;;4976724;28;20477;-76
2023/10/14 12:07:05;;;;;;;4.93;1.50;;;33.40;40.10;;;;;;4965736;28;20454;-77
2023/10/14 12:09:33;;;;;;;5.47;2.20;;;34.90;37.50;;;;;;4979414;28;20553;-77
2023/10/14 12:12:03;;;;;;;3.77;1.80;;;36.20;36.20;;;;;;4969525;28;20469;-77
2023/10/14 12:14:31;;;;;;;10.27;2.10;;;37.20;34.80;;;;;;4971396;28;20442;-77
2023/10/14 12:17:04;;;;;;;6.30;2.30;;;38.10;33.80;;;;;;4965144;28;20539;-77
2023/10/14 12:19:33;;;;;;;22.07;2.80;;;38.90;32.60;;;;;;4975646;28;20471;-77
2023/10/14 12:22:01;;;;;;;6.47;2.70;;;39.20;31.90;;;;;;4969246;28;20485;-79
2023/10/14 12:24:32;;;;;;;7.73;2.10;;;39.80;31.60;;;;;;4978722;28;20465;-76
2023/10/14 12:27:01;;;;;;;12.10;2.40;;;39.10;30.60;;;;;;4975198;28;20488;-77
2023/10/14 12:29:33;;;;;;;6.43;2.27;;;37.90;32.20;;;;;;4979567;28;20466;-78
2023/10/14 12:32:03;;;;;;;4.53;2.13;;;37.50;32.80;;;;;;4978852;28;20476;-78
2023/10/14 12:34:46;;;;;;;11.17;2.67;;;36.40;34.70;;;;;;4980153;28;20454;-77
2023/10/14 12:37:18;;;;;;;5.83;2.30;;;35.30;35.80;;;;;;4980933;28;20873;-78
2023/10/14 12:39:55;;;;;;;5.23;2.37;;;34.20;36.80;;;;;;4981313;28;20531;-78
2023/10/14 12:42:38;;;;;;;4.23;2.50;;;33.30;38.40;;;;;;4997866;28;20437;-78
2023/10/14 12:45:12;;;;;;;9.40;2.47;;;32.50;40.00;;;;;;4993573;28;20529;-77
2023/10/14 12:47:46;;;;;;;5.87;2.30;;;31.70;41.40;;;;;;4989241;28;20488;-75
2023/10/14 12:50:15;;;;;;;7.53;2.40;;;31.20;42.60;;;;;;4989006;28;20469;-75
2023/10/14 12:52:45;;;;;;;10.03;2.60;;;30.70;43.60;;;;;;5002235;28;20422;-75
2023/10/14 12:55:19;;;;;;;5.50;2.80;;;30.40;44.70;;;;;;4998142;28;20446;-76
2023/10/14 12:57:49;;;;;;;10.33;2.77;;;30.10;45.50;;;;;;4989453;28;20457;-77
2023/10/14 13:00:25;;;;;;;9.23;2.50;;;29.90;46.40;;;;;;4984922;28;20442;-77
2023/10/14 13:02:55;;;;;;;10.87;2.60;;;30.00;46.70;;;;;;4998891;28;20417;-76
2023/10/14 13:05:26;;;;;;;7.33;2.87;;;29.80;46.50;;;;;;4998707;28;20466;-76
2023/10/14 13:14:52;;;;;;;16.90;3.63;;;29.20;48.10;;;;;;5003701;28;20573;-76
2023/10/14 13:25:09;;;;;;;7.50;3.30;;;28.90;50.30;;;;;;4968498;28;20541;-77
2023/10/14 13:27:38;;;;;;;9.60;3.20;;;30.20;50.70;;;;;;4989356;28;20461;-77
2023/10/14 13:30:15;;;;;;;9.20;3.90;;;31.80;47.90;;;;;;4981112;28;20510;-78
2023/10/14 13:32:44;;;;;;;8.27;3.60;;;33.10;45.00;;;;;;4985420;28;20442;-77
2023/10/14 13:35:15;;;;;;;14.03;3.90;;;34.30;43.20;;;;;;4989214;28;20481;-75
2023/10/14 13:37:43;;;;;;;8.10;3.30;;;35.10;41.60;;;;;;4986087;28;20525;-77
2023/10/14 13:40:12;;;;;;;10.03;3.57;;;35.40;40.00;;;;;;4996203;28;20459;-77
2023/10/14 13:42:53;;;;;;;6.57;2.97;;;35.10;38.60;;;;;;4986922;28;20438;-76
2023/10/14 13:45:24;;;;;;;4.77;2.30;;;34.40;37.20;;;;;;4983982;28;20498;-76
2023/10/14 13:47:52;;;;;;;2.90;2.63;;;33.50;37.00;;;;;;4962381;28;20459;-76
2023/10/14 13:50:23;;;;;;;6.27;2.40;;;32.50;36.80;;;;;;4961337;28;20501;-75
2023/10/14 13:52:55;;;;;;;7.43;3.23;;;31.90;38.80;;;;;;4971720;28;20508;-76
2023/10/14 13:55:23;;;;;;;3.67;2.70;;;31.30;40.30;;;;;;4963215;28;20533;-77
2023/10/14 13:57:51;;;;;;;12.87;3.30;;;30.70;41.50;;;;;;4971071;28;20470;-76
2023/10/14 14:00:35;;;;;;;5.27;3.17;;;30.40;42.70;;;;;;4963905;28;20481;-76
2023/10/14 14:03:10;;;;;;;6.70;3.60;;;30.20;43.60;;;;;;4955556;28;20454;-76
2023/10/14 14:05:39;;;;;;;5.77;2.83;;;30.10;44.40;;;;;;4968402;28;20476;-76
2023/10/14 14:08:12;;;;;;;6.30;3.10;;;30.00;44.60;;;;;;4966011;28;21053;-76
2023/10/14 14:10:42;;;;;;;7.37;2.90;;;29.90;45.10;;;;;;4970203;28;20529;-77
2023/10/14 14:13:16;;;;;;;5.23;2.80;;;29.90;45.40;;;;;;4973024;28;20497;-77
2023/10/14 14:15:44;;;;;;;5.83;3.07;;;29.80;45.60;;;;;;4972629;28;20505;-76
2023/10/14 14:18:16;;;;;;;9.07;3.13;;;29.70;46.00;;;;;;4960580;28;20460;-77
2023/10/14 14:20:45;;;;;;;10.40;2.40;;;29.60;46.30;;;;;;4971158;28;20413;-77
2023/10/14 14:23:15;;;;;;;7.27;3.00;;;29.50;46.70;;;;;;4961170;28;20477;-77
2023/10/14 14:25:44;;;;;;;7.80;3.10;;;29.40;47.10;;;;;;4969167;28;20506;-76
2023/10/14 14:28:13;;;;;;;4.50;2.70;;;29.50;47.70;;;;;;4971585;28;20465;-77